sensor_id;sensor_type;location;lat;lon;timestamp;pressure;altitude;pressure_sealevel;temperature;humidity
64080;BME280;51042;49.696;10.808;2023-05-07T00:01:35;98471.81;;;12.81;100.00
64080;BME280;51042;49.696;10.808;2023-05-07T00:04:01;98473.34;;;12.82;100.00
64080;BME280;51042;49.696;10.808;2023-05-07T00:06:26;98471.69;;;12.84;100.00
64080;BME280;51042;49.696;10.808;2023-05-07T00:08:53;98475.66;;;12.83;100.00
64080;BME280;51042;49.696;10.808;2023-05-07T00:11:19;98484.69;;;12.84;100.00
64080;BME280;51042;49.696;10.808;2023-05-07T00:13:45;98479.03;;;12.87;100.00
64080;BME280;51042;49.696;10.808;2023-05-07T00:16:12;98478.91;;;12.91;100.00
64080;BME280;51042;49.696;10.808;2023-05-07T00:18:37;98484.75;;;12.93;100.00
64080;BME280;51042;49.696;10.808;2023-05-07T00:21:02;98481.53;;;12.94;100.00
64080;BME280;51042;49.696;10.808;2023-05-07T00:23:28;98486.59;;;12.96;100.00
64080;BME280;51042;49.696;10.808;2023-05-07T00:25:53;98490.13;;;12.96;100.00
64080;BME280;51042;49.696;10.808;2023-05-07T00:28:18;98478.78;;;12.94;100.00
64080;BME280;51042;49.696;10.808;2023-05-07T00:30:44;98485.50;;;12.93;100.00
64080;BME280;51042;49.696;10.808;2023-05-07T00:33:09;98478.78;;;12.94;100.00
64080;BME280;51042;49.696;10.808;2023-05-07T00:35:34;98477.25;;;12.93;100.00
64080;BME280;51042;49.696;10.808;2023-05-07T00:38:00;98471.44;;;12.91;100.00
64080;BME280;51042;49.696;10.808;2023-05-07T00:40:25;98482.25;;;12.86;100.00
64080;BME280;51042;49.696;10.808;2023-05-07T00:42:50;98475.31;;;12.81;100.00
64080;BME280;51042;49.696;10.808;2023-05-07T00:45:21;98476.66;;;12.77;100.00
64080;BME280;51042;49.696;10.808;2023-05-07T00:47:48;98473.91;;;12.77;100.00
64080;BME280;51042;49.696;10.808;2023-05-07T00:50:13;98467.19;;;12.78;100.00
64080;BME280;51042;49.696;10.808;2023-05-07T00:52:38;98471.34;;;12.82;100.00
64080;BME280;51042;49.696;10.808;2023-05-07T00:55:04;98467.38;;;12.83;100.00
64080;BME280;51042;49.696;10.808;2023-05-07T00:57:37;98471.34;;;12.82;100.00
64080;BME280;51042;49.696;10.808;2023-05-07T01:00:05;98472.56;;;12.81;100.00
64080;BME280;51042;49.696;10.808;2023-05-07T01:02:32;98469.81;;;12.81;100.00
64080;BME280;51042;49.696;10.808;2023-05-07T01:04:57;98473.34;;;12.82;100.00
64080;BME280;51042;49.696;10.808;2023-05-07T01:07:23;98476.75;;;12.86;100.00
64080;BME280;51042;49.696;10.808;2023-05-07T01:09:49;98475.06;;;12.88;100.00
64080;BME280;51042;49.696;10.808;2023-05-07T01:12:15;98465.25;;;12.87;100.00
64080;BME280;51042;49.696;10.808;2023-05-07T01:14:40;98469.06;;;12.81;100.00
64080;BME280;51042;49.696;10.808;2023-05-07T01:17:06;98469.94;;;12.78;100.00
64080;BME280;51042;49.696;10.808;2023-05-07T01:19:33;98470.28;;;12.80;100.00
64080;BME280;51042;49.696;10.808;2023-05-07T01:22:03;98472.25;;;12.79;100.00
64080;BME280;51042;49.696;10.808;2023-05-07T01:24:32;98459.84;;;12.75;100.00
64080;BME280;51042;49.696;10.808;2023-05-07T01:26:57;98463.03;;;12.73;100.00
64080;BME280;51042;49.696;10.808;2023-05-07T01:29:23;98455.22;;;12.72;100.00
64080;BME280;51042;49.696;10.808;2023-05-07T01:31:48;98458.75;;;12.72;100.00
64080;BME280;51042;49.696;10.808;2023-05-07T01:34:16;98457.19;;;12.71;100.00
64080;BME280;51042;49.696;10.808;2023-05-07T01:36:43;98450.91;;;12.71;100.00
64080;BME280;51042;49.696;10.808;2023-05-07T01:39:09;98453.66;;;12.71;100.00
64080;BME280;51042;49.696;10.808;2023-05-07T01:41:35;98451.06;;;12.67;100.00
64080;BME280;51042;49.696;10.808;2023-05-07T01:44:00;98445.22;;;12.65;100.00
64080;BME280;51042;49.696;10.808;2023-05-07T01:46:27;98447.97;;;12.65;100.00
64080;BME280;51042;49.696;10.808;2023-05-07T01:48:53;98449.50;;;12.66;100.00
64080;BME280;51042;49.696;10.808;2023-05-07T01:51:19;98451.06;;;12.67;100.00
64080;BME280;51042;49.696;10.808;2023-05-07T01:53:45;98451.38;;;12.69;100.00
64080;BME280;51042;49.696;10.808;2023-05-07T01:56:12;98458.09;;;12.68;100.00
64080;BME280;51042;49.696;10.808;2023-05-07T01:58:38;98455.47;;;12.64;100.00
64080;BME280;51042;49.696;10.808;2023-05-07T02:01:03;98459.75;;;12.65;100.00
64080;BME280;51042;49.696;10.808;2023-05-07T02:03:28;98459.91;;;12.62;100.00
64080;BME280;51042;49.696;10.808;2023-05-07T02:05:54;98463.84;;;12.61;100.00
64080;BME280;51042;49.696;10.808;2023-05-07T02:08:19;98459.22;;;12.58;100.00
64080;BME280;51042;49.696;10.808;2023-05-07T02:10:44;98449.22;;;12.51;100.00
64080;BME280;51042;49.696;10.808;2023-05-07T02:13:10;98452.13;;;12.48;100.00
64080;BME280;51042;49.696;10.808;2023-05-07T02:15:36;98449.16;;;12.42;100.00
64080;BME280;51042;49.696;10.808;2023-05-07T02:18:02;98445.31;;;12.40;100.00
64080;BME280;51042;49.696;10.808;2023-05-07T02:20:36;98451.72;;;12.37;100.00
64080;BME280;51042;49.696;10.808;2023-05-07T02:23:02;98450.50;;;12.38;100.00
64080;BME280;51042;49.696;10.808;2023-05-07T02:25:27;98447.75;;;12.38;100.00
64080;BME280;51042;49.696;10.808;2023-05-07T02:27:54;98447.44;;;12.36;100.00
64080;BME280;51042;49.696;10.808;2023-05-07T02:30:19;98438.84;;;12.34;100.00
64080;BME280;51042;49.696;10.808;2023-05-07T02:32:46;98444.81;;;12.32;100.00
64080;BME280;51042;49.696;10.808;2023-05-07T02:35:12;98438.34;;;12.26;100.00
64080;BME280;51042;49.696;10.808;2023-05-07T02:37:37;98446.78;;;12.32;100.00
64080;BME280;51042;49.696;10.808;2023-05-07T02:40:03;98444.16;;;12.28;100.00
64080;BME280;51042;49.696;10.808;2023-05-07T02:42:29;98454.38;;;12.27;100.00
64080;BME280;51042;49.696;10.808;2023-05-07T02:44:54;98448.13;;;12.27;100.00
64080;BME280;51042;49.696;10.808;2023-05-07T02:47:20;98444.28;;;12.24;100.00
64080;BME280;51042;49.696;10.808;2023-05-07T02:49:45;98451.91;;;12.20;100.00
64080;BME280;51042;49.696;10.808;2023-05-07T02:52:10;98461.03;;;12.17;100.00
64080;BME280;51042;49.696;10.808;2023-05-07T02:54:35;98450.00;;;12.17;100.00
64080;BME280;51042;49.696;10.808;2023-05-07T02:57:01;98452.31;;;12.19;100.00
64080;BME280;51042;49.696;10.808;2023-05-07T02:59:27;98444.84;;;12.19;100.00
64080;BME280;51042;49.696;10.808;2023-05-07T03:01:52;98440.22;;;12.16;100.00
64080;BME280;51042;49.696;10.808;2023-05-07T03:04:17;98438.81;;;12.12;100.00
64080;BME280;51042;49.696;10.808;2023-05-07T03:06:43;98438.25;;;12.04;100.00
64080;BME280;51042;49.696;10.808;2023-05-07T03:09:08;98430.72;;;11.96;100.00
64080;BME280;51042;49.696;10.808;2023-05-07T03:11:33;98443.16;;;11.88;100.00
64080;BME280;51042;49.696;10.808;2023-05-07T03:14:00;98436.44;;;11.76;100.00
64080;BME280;51042;49.696;10.808;2023-05-07T03:16:25;98435.88;;;11.68;100.00
64080;BME280;51042;49.696;10.808;2023-05-07T03:18:51;98432.59;;;11.61;100.00
64080;BME280;51042;49.696;10.808;2023-05-07T03:21:16;98442.28;;;11.53;100.00
64080;BME280;51042;49.696;10.808;2023-05-07T03:23:42;98435.44;;;11.44;100.00
64080;BME280;51042;49.696;10.808;2023-05-07T03:26:07;98434.03;;;11.40;100.00
64080;BME280;51042;49.696;10.808;2023-05-07T03:28:32;98435.69;;;11.37;100.00
64080;BME280;51042;49.696;10.808;2023-05-07T03:30:58;98438.97;;;11.32;100.00
64080;BME280;51042;49.696;10.808;2023-05-07T03:33:23;98447.19;;;11.32;100.00
64080;BME280;51042;49.696;10.808;2023-05-07T03:35:48;98447.09;;;11.36;100.00
64080;BME280;51042;49.696;10.808;2023-05-07T03:38:14;98444.78;;;11.34;100.00
64080;BME280;51042;49.696;10.808;2023-05-07T03:40:39;98444.03;;;11.34;100.00
64080;BME280;51042;49.696;10.808;2023-05-07T03:43:05;98445.69;;;11.31;100.00
64080;BME280;51042;49.696;10.808;2023-05-07T03:45:30;98441.81;;;11.29;100.00
64080;BME280;51042;49.696;10.808;2023-05-07T03:47:55;98455.22;;;11.27;100.00
64080;BME280;51042;49.696;10.808;2023-05-07T03:50:21;98448.53;;;11.28;100.00
64080;BME280;51042;49.696;10.808;2023-05-07T03:52:46;98457.53;;;11.28;100.00
64080;BME280;51042;49.696;10.808;2023-05-07T03:55:11;98455.69;;;11.25;100.00
64080;BME280;51042;49.696;10.808;2023-05-07T03:57:36;98463.03;;;11.28;100.00
64080;BME280;51042;49.696;10.808;2023-05-07T04:00:02;98467.13;;;11.36;100.00
64080;BME280;51042;49.696;10.808;2023-05-07T04:02:29;98480.41;;;11.51;100.00
64080;BME280;51042;49.696;10.808;2023-05-07T04:04:54;98480.53;;;11.60;100.00
64080;BME280;51042;49.696;10.808;2023-05-07T04:07:19;98485.03;;;11.66;100.00
64080;BME280;51042;49.696;10.808;2023-05-07T04:09:45;98494.19;;;11.76;100.00
64080;BME280;51042;49.696;10.808;2023-05-07T04:12:10;98494.97;;;11.89;100.00
64080;BME280;51042;49.696;10.808;2023-05-07T04:14:35;98499.25;;;12.03;100.00
64080;BME280;51042;49.696;10.808;2023-05-07T04:17:00;98497.56;;;12.18;100.00
64080;BME280;51042;49.696;10.808;2023-05-07T04:19:26;98496.63;;;12.34;100.00
64080;BME280;51042;49.696;10.808;2023-05-07T04:21:51;98488.25;;;12.50;100.00
64080;BME280;51042;49.696;10.808;2023-05-07T04:24:16;98502.03;;;12.72;100.00
64080;BME280;51042;49.696;10.808;2023-05-07T04:26:42;98493.75;;;12.93;100.00
64080;BME280;51042;49.696;10.808;2023-05-07T04:29:07;98498.06;;;13.38;100.00
64080;BME280;51042;49.696;10.808;2023-05-07T04:31:32;98500.66;;;14.03;100.00
64080;BME280;51042;49.696;10.808;2023-05-07T04:33:58;98504.63;;;14.69;97.28
64080;BME280;51042;49.696;10.808;2023-05-07T04:36:23;98505.34;;;15.16;88.48
64080;BME280;51042;49.696;10.808;2023-05-07T04:38:52;98500.38;;;15.47;87.20
64080;BME280;51042;49.696;10.808;2023-05-07T04:41:18;98507.13;;;15.97;80.37
64080;BME280;51042;49.696;10.808;2023-05-07T04:43:43;98500.59;;;16.09;78.58
64080;BME280;51042;49.696;10.808;2023-05-07T04:46:09;98498.16;;;15.78;80.13
64080;BME280;51042;49.696;10.808;2023-05-07T04:48:35;98511.16;;;15.27;83.99
64080;BME280;51042;49.696;10.808;2023-05-07T04:51:00;98517.97;;;14.89;87.23
64080;BME280;51042;49.696;10.808;2023-05-07T04:53:25;98509.22;;;14.63;90.33
64080;BME280;51042;49.696;10.808;2023-05-07T04:55:57;98509.38;;;14.69;89.55
64080;BME280;51042;49.696;10.808;2023-05-07T04:58:23;98508.13;;;15.25;85.50
64080;BME280;51042;49.696;10.808;2023-05-07T05:00:48;98505.69;;;15.69;82.42
64080;BME280;51042;49.696;10.808;2023-05-07T05:03:14;98500.09;;;16.20;80.92
64080;BME280;51042;49.696;10.808;2023-05-07T05:05:39;98508.81;;;16.51;78.79
64080;BME280;51042;49.696;10.808;2023-05-07T05:08:05;98509.28;;;16.02;80.98
64080;BME280;51042;49.696;10.808;2023-05-07T05:10:30;98514.22;;;15.47;84.66
64080;BME280;51042;49.696;10.808;2023-05-07T05:12:55;98514.75;;;14.82;89.08
64080;BME280;51042;49.696;10.808;2023-05-07T05:15:21;98512.50;;;14.22;93.90
64080;BME280;51042;49.696;10.808;2023-05-07T05:17:46;98522.81;;;13.81;98.20
64080;BME280;51042;49.696;10.808;2023-05-07T05:20:11;98525.41;;;13.54;100.00
64080;BME280;51042;49.696;10.808;2023-05-07T05:22:37;98522.75;;;13.41;100.00
64080;BME280;51042;49.696;10.808;2023-05-07T05:25:02;98522.63;;;13.45;100.00
64080;BME280;51042;49.696;10.808;2023-05-07T05:27:28;98518.50;;;13.49;100.00
64080;BME280;51042;49.696;10.808;2023-05-07T05:29:53;98524.25;;;13.64;100.00
64080;BME280;51042;49.696;10.808;2023-05-07T05:32:19;98526.00;;;13.80;100.00
64080;BME280;51042;49.696;10.808;2023-05-07T05:34:44;98530.72;;;14.10;100.00
64080;BME280;51042;49.696;10.808;2023-05-07T05:37:10;98533.81;;;14.21;100.00
64080;BME280;51042;49.696;10.808;2023-05-07T05:39:35;98533.59;;;14.56;98.37
64080;BME280;51042;49.696;10.808;2023-05-07T05:42:01;98533.66;;;16.13;86.92
64080;BME280;51042;49.696;10.808;2023-05-07T05:44:26;98534.09;;;16.92;78.03
64080;BME280;51042;49.696;10.808;2023-05-07T05:46:51;98524.19;;;16.52;78.90
64080;BME280;51042;49.696;10.808;2023-05-07T05:49:19;98528.72;;;15.84;82.69
64080;BME280;51042;49.696;10.808;2023-05-07T05:51:44;98525.94;;;15.24;88.26
64080;BME280;51042;49.696;10.808;2023-05-07T05:54:10;98524.25;;;14.90;92.73
64080;BME280;51042;49.696;10.808;2023-05-07T05:56:36;98526.41;;;14.67;96.11
64080;BME280;51042;49.696;10.808;2023-05-07T05:59:02;98523.94;;;14.51;91.91
64080;BME280;51042;49.696;10.808;2023-05-07T06:01:27;98525.59;;;14.40;94.66
64080;BME280;51042;49.696;10.808;2023-05-07T06:03:52;98527.69;;;14.26;97.67
64080;BME280;51042;49.696;10.808;2023-05-07T06:06:17;98516.03;;;14.31;95.18
64080;BME280;51042;49.696;10.808;2023-05-07T06:08:43;98522.94;;;14.27;96.46
64080;BME280;51042;49.696;10.808;2023-05-07T06:11:08;98520.34;;;14.32;96.65
64080;BME280;51042;49.696;10.808;2023-05-07T06:13:34;98524.84;;;14.39;96.55
64080;BME280;51042;49.696;10.808;2023-05-07T06:15:59;98530.53;;;14.45;96.62
64080;BME280;51042;49.696;10.808;2023-05-07T06:18:24;98532.81;;;14.46;95.43
64080;BME280;51042;49.696;10.808;2023-05-07T06:20:50;98532.38;;;14.48;95.67
64080;BME280;51042;49.696;10.808;2023-05-07T06:23:16;98530.84;;;14.47;96.40
64080;BME280;51042;49.696;10.808;2023-05-07T06:25:41;98533.75;;;14.52;98.11
64080;BME280;51042;49.696;10.808;2023-05-07T06:28:07;98531.44;;;14.51;96.04
64080;BME280;51042;49.696;10.808;2023-05-07T06:30:34;98536.38;;;14.65;95.49
64080;BME280;51042;49.696;10.808;2023-05-07T06:32:59;98540.06;;;14.62;94.75
64080;BME280;51042;49.696;10.808;2023-05-07T06:35:24;98536.22;;;14.78;92.40
64080;BME280;51042;49.696;10.808;2023-05-07T06:37:50;98538.69;;;14.76;93.53
64080;BME280;51042;49.696;10.808;2023-05-07T06:40:15;98539.75;;;14.78;89.69
64080;BME280;51042;49.696;10.808;2023-05-07T06:42:41;98544.06;;;14.79;90.41
64080;BME280;51042;49.696;10.808;2023-05-07T06:45:07;98548.06;;;14.87;89.61
64080;BME280;51042;49.696;10.808;2023-05-07T06:47:33;98546.66;;;14.92;89.09
64080;BME280;51042;49.696;10.808;2023-05-07T06:49:58;98546.19;;;15.02;88.51
64080;BME280;51042;49.696;10.808;2023-05-07T06:52:24;98553.59;;;15.05;89.41
64080;BME280;51042;49.696;10.808;2023-05-07T06:54:49;98563.69;;;15.27;87.33
64080;BME280;51042;49.696;10.808;2023-05-07T06:57:14;98560.78;;;15.30;85.62
64080;BME280;51042;49.696;10.808;2023-05-07T06:59:40;98559.09;;;15.24;86.19
64080;BME280;51042;49.696;10.808;2023-05-07T07:02:05;98554.63;;;15.26;85.21
64080;BME280;51042;49.696;10.808;2023-05-07T07:04:31;98558.00;;;15.39;84.34
64080;BME280;51042;49.696;10.808;2023-05-07T07:06:56;98562.91;;;15.44;85.27
64080;BME280;51042;49.696;10.808;2023-05-07T07:09:21;98558.00;;;15.58;84.02
64080;BME280;51042;49.696;10.808;2023-05-07T07:11:47;98563.75;;;15.87;82.61
64080;BME280;51042;49.696;10.808;2023-05-07T07:14:12;98557.00;;;16.21;81.01
64080;BME280;51042;49.696;10.808;2023-05-07T07:16:38;98564.72;;;16.50;77.24
64080;BME280;51042;49.696;10.808;2023-05-07T07:19:03;98565.84;;;16.34;77.47
64080;BME280;51042;49.696;10.808;2023-05-07T07:21:28;98561.84;;;16.35;77.56
64080;BME280;51042;49.696;10.808;2023-05-07T07:23:54;98562.81;;;16.32;78.29
64080;BME280;51042;49.696;10.808;2023-05-07T07:26:19;98557.56;;;16.58;75.30
64080;BME280;51042;49.696;10.808;2023-05-07T07:28:45;98551.25;;;16.57;75.82
64080;BME280;51042;49.696;10.808;2023-05-07T07:31:10;98557.88;;;16.60;75.77
64080;BME280;51042;49.696;10.808;2023-05-07T07:33:36;98560.00;;;16.89;75.61
64080;BME280;51042;49.696;10.808;2023-05-07T07:36:01;98553.53;;;16.92;74.83
64080;BME280;51042;49.696;10.808;2023-05-07T07:38:27;98558.28;;;16.91;74.08
64080;BME280;51042;49.696;10.808;2023-05-07T07:40:52;98558.88;;;16.95;73.97
64080;BME280;51042;49.696;10.808;2023-05-07T07:43:18;98561.53;;;16.90;74.67
64080;BME280;51042;49.696;10.808;2023-05-07T07:45:43;98563.31;;;16.78;75.57
64080;BME280;51042;49.696;10.808;2023-05-07T07:48:09;98557.38;;;17.09;76.15
64080;BME280;51042;49.696;10.808;2023-05-07T07:50:35;98556.91;;;17.40;71.13
64080;BME280;51042;49.696;10.808;2023-05-07T07:53:00;98552.69;;;17.15;72.27
64080;BME280;51042;49.696;10.808;2023-05-07T07:55:25;98560.63;;;17.07;72.74
64080;BME280;51042;49.696;10.808;2023-05-07T07:57:52;98555.28;;;17.19;72.73
64080;BME280;51042;49.696;10.808;2023-05-07T08:00:17;98567.09;;;18.02;69.41
64080;BME280;51042;49.696;10.808;2023-05-07T08:02:42;98564.34;;;17.87;69.14
64080;BME280;51042;49.696;10.808;2023-05-07T08:05:08;98566.94;;;17.61;70.38
64080;BME280;51042;49.696;10.808;2023-05-07T08:07:33;98567.09;;;18.02;69.59
64080;BME280;51042;49.696;10.808;2023-05-07T08:09:58;98566.53;;;17.83;69.72
64080;BME280;51042;49.696;10.808;2023-05-07T08:12:24;98561.53;;;18.16;68.78
64080;BME280;51042;49.696;10.808;2023-05-07T08:14:49;98564.13;;;17.90;69.40
64080;BME280;51042;49.696;10.808;2023-05-07T08:17:14;98568.09;;;18.33;68.74
64080;BME280;51042;49.696;10.808;2023-05-07T08:19:41;98568.56;;;18.32;68.34
64080;BME280;51042;49.696;10.808;2023-05-07T08:22:06;98562.16;;;18.26;67.53
64080;BME280;51042;49.696;10.808;2023-05-07T08:24:32;98562.38;;;18.22;67.92
64080;BME280;51042;49.696;10.808;2023-05-07T08:26:57;98552.03;;;18.43;68.41
64080;BME280;51042;49.696;10.808;2023-05-07T08:29:22;98564.47;;;18.62;68.33
64080;BME280;51042;49.696;10.808;2023-05-07T08:31:48;98559.81;;;18.39;67.53
64080;BME280;51042;49.696;10.808;2023-05-07T08:34:13;98561.47;;;18.31;67.07
64080;BME280;51042;49.696;10.808;2023-05-07T08:36:38;98565.47;;;18.45;66.95
64080;BME280;51042;49.696;10.808;2023-05-07T08:39:04;98563.00;;;18.87;66.06
64080;BME280;51042;49.696;10.808;2023-05-07T08:41:29;98566.63;;;19.39;64.28
64080;BME280;51042;49.696;10.808;2023-05-07T08:43:55;98570.94;;;19.92;63.35
64080;BME280;51042;49.696;10.808;2023-05-07T08:46:23;98578.19;;;20.15;61.07
64080;BME280;51042;49.696;10.808;2023-05-07T08:48:51;98565.97;;;20.38;59.82
64080;BME280;51042;49.696;10.808;2023-05-07T08:51:20;98562.81;;;20.20;60.48
64080;BME280;51042;49.696;10.808;2023-05-07T08:53:47;98550.06;;;20.08;59.88
64080;BME280;51042;49.696;10.808;2023-05-07T08:56:14;98560.63;;;20.04;61.18
64080;BME280;51042;49.696;10.808;2023-05-07T08:58:40;98560.50;;;20.18;59.40
64080;BME280;51042;49.696;10.808;2023-05-07T09:01:12;98571.63;;;19.55;61.09
64080;BME280;51042;49.696;10.808;2023-05-07T09:03:39;98564.84;;;19.62;61.76
64080;BME280;51042;49.696;10.808;2023-05-07T09:06:05;98567.94;;;19.44;62.62
64080;BME280;51042;49.696;10.808;2023-05-07T09:08:32;98574.00;;;19.94;63.20
64080;BME280;51042;49.696;10.808;2023-05-07T09:10:58;98559.50;;;20.21;60.78
64080;BME280;51042;49.696;10.808;2023-05-07T09:13:23;98566.13;;;20.61;58.42
64080;BME280;51042;49.696;10.808;2023-05-07T09:15:48;98558.56;;;20.72;57.54
64080;BME280;51042;49.696;10.808;2023-05-07T09:18:14;98562.69;;;20.09;60.41
64080;BME280;51042;49.696;10.808;2023-05-07T09:20:39;98554.53;;;20.00;60.33
64080;BME280;51042;49.696;10.808;2023-05-07T09:23:07;98553.59;;;19.77;62.02
64080;BME280;51042;49.696;10.808;2023-05-07T09:25:33;98561.19;;;19.76;62.22
64080;BME280;51042;49.696;10.808;2023-05-07T09:28:00;98561.72;;;19.54;62.10
64080;BME280;51042;49.696;10.808;2023-05-07T09:30:30;98550.41;;;19.89;61.61
64080;BME280;51042;49.696;10.808;2023-05-07T09:32:59;98545.09;;;20.28;60.74
64080;BME280;51042;49.696;10.808;2023-05-07T09:35:26;98554.78;;;20.75;59.75
64080;BME280;51042;49.696;10.808;2023-05-07T09:37:53;98546.56;;;21.14;58.32
64080;BME280;51042;49.696;10.808;2023-05-07T09:40:20;98557.91;;;20.94;57.62
64080;BME280;51042;49.696;10.808;2023-05-07T09:42:50;98552.22;;;20.72;60.06
64080;BME280;51042;49.696;10.808;2023-05-07T09:45:16;98548.16;;;20.67;59.37
64080;BME280;51042;49.696;10.808;2023-05-07T09:47:46;98552.97;;;20.30;59.92
64080;BME280;51042;49.696;10.808;2023-05-07T09:50:14;98551.91;;;20.59;61.07
64080;BME280;51042;49.696;10.808;2023-05-07T09:52:41;98558.00;;;21.16;58.16
64080;BME280;51042;49.696;10.808;2023-05-07T09:55:08;98554.44;;;21.22;57.30
64080;BME280;51042;49.696;10.808;2023-05-07T09:57:35;98545.47;;;20.95;58.20
64080;BME280;51042;49.696;10.808;2023-05-07T10:00:02;98548.41;;;20.69;58.60
64080;BME280;51042;49.696;10.808;2023-05-07T10:02:30;98543.75;;;21.09;58.03
64080;BME280;51042;49.696;10.808;2023-05-07T10:04:58;98546.66;;;21.48;56.62
64080;BME280;51042;49.696;10.808;2023-05-07T10:07:25;98546.31;;;21.18;56.90
64080;BME280;51042;49.696;10.808;2023-05-07T10:09:51;98542.09;;;21.84;55.39
64080;BME280;51042;49.696;10.808;2023-05-07T10:12:17;98544.13;;;21.67;55.29
64080;BME280;51042;49.696;10.808;2023-05-07T10:14:44;98557.06;;;21.47;56.30
64080;BME280;51042;49.696;10.808;2023-05-07T10:17:11;98559.53;;;21.17;56.26
64080;BME280;51042;49.696;10.808;2023-05-07T10:19:36;98549.72;;;21.94;54.72
64080;BME280;51042;49.696;10.808;2023-05-07T10:22:04;98549.72;;;23.08;51.76
64080;BME280;51042;49.696;10.808;2023-05-07T10:24:33;98543.06;;;22.42;52.67
64080;BME280;51042;49.696;10.808;2023-05-07T10:27:00;98543.38;;;22.22;54.15
64080;BME280;51042;49.696;10.808;2023-05-07T10:34:45;98541.97;;;22.67;52.84
64080;BME280;51042;49.696;10.808;2023-05-07T10:37:13;98546.16;;;21.72;54.43
64080;BME280;51042;49.696;10.808;2023-05-07T10:39:40;98537.78;;;21.88;54.30
64080;BME280;51042;49.696;10.808;2023-05-07T10:42:12;98540.84;;;22.02;53.86
64080;BME280;51042;49.696;10.808;2023-05-07T10:44:38;98534.44;;;22.34;53.80
64080;BME280;51042;49.696;10.808;2023-05-07T10:47:04;98534.63;;;22.70;52.54
64080;BME280;51042;49.696;10.808;2023-05-07T10:49:33;98536.09;;;23.34;50.63
64080;BME280;51042;49.696;10.808;2023-05-07T10:52:11;98528.75;;;22.73;51.71
64080;BME280;51042;49.696;10.808;2023-05-07T10:54:41;98524.91;;;22.82;52.43
64080;BME280;51042;49.696;10.808;2023-05-07T10:59:55;98517.25;;;22.88;51.94
64080;BME280;51042;49.696;10.808;2023-05-07T11:02:20;98526.38;;;22.94;51.79
64080;BME280;51042;49.696;10.808;2023-05-07T11:04:46;98529.28;;;22.72;51.66
64080;BME280;51042;49.696;10.808;2023-05-07T11:07:44;98527.09;;;23.00;50.64
64080;BME280;51042;49.696;10.808;2023-05-07T11:10:19;98520.16;;;22.49;51.82
64080;BME280;51042;49.696;10.808;2023-05-07T11:15:10;98525.53;;;22.42;53.32
64080;BME280;51042;49.696;10.808;2023-05-07T11:17:55;98530.50;;;22.88;52.05
64080;BME280;51042;49.696;10.808;2023-05-07T11:26:07;98512.13;;;21.84;51.69
64080;BME280;51042;49.696;10.808;2023-05-07T11:28:36;98508.06;;;21.63;52.19
64080;BME280;51042;49.696;10.808;2023-05-07T11:31:03;98504.00;;;22.03;52.01
64080;BME280;51042;49.696;10.808;2023-05-07T11:33:29;98506.06;;;21.97;52.38
64080;BME280;51042;49.696;10.808;2023-05-07T11:35:55;98510.59;;;21.55;52.99
64080;BME280;51042;49.696;10.808;2023-05-07T11:38:21;98507.31;;;21.68;53.12
64080;BME280;51042;49.696;10.808;2023-05-07T11:40:56;98498.66;;;21.55;52.62
64080;BME280;51042;49.696;10.808;2023-05-07T11:43:23;98501.69;;;21.57;52.92
64080;BME280;51042;49.696;10.808;2023-05-07T11:45:49;98505.47;;;22.32;51.18
64080;BME280;51042;49.696;10.808;2023-05-07T11:48:15;98508.72;;;22.47;49.04
64080;BME280;51042;49.696;10.808;2023-05-07T11:50:51;98510.50;;;22.56;49.19
64080;BME280;51042;49.696;10.808;2023-05-07T11:53:25;98509.84;;;22.22;49.33
64080;BME280;51042;49.696;10.808;2023-05-07T11:55:52;98501.97;;;22.15;50.15
64080;BME280;51042;49.696;10.808;2023-05-07T11:58:21;98504.09;;;22.72;49.02
64080;BME280;51042;49.696;10.808;2023-05-07T12:00:48;98496.88;;;22.93;48.42
64080;BME280;51042;49.696;10.808;2023-05-07T12:03:16;98499.09;;;23.06;49.26
64080;BME280;51042;49.696;10.808;2023-05-07T12:05:43;98502.94;;;23.03;48.00
64080;BME280;51042;49.696;10.808;2023-05-07T12:08:18;98499.94;;;23.31;48.31
64080;BME280;51042;49.696;10.808;2023-05-07T12:10:45;98502.19;;;22.97;48.15
64080;BME280;51042;49.696;10.808;2023-05-07T12:13:18;98500.09;;;23.08;47.98
64080;BME280;51042;49.696;10.808;2023-05-07T12:15:51;98498.19;;;22.87;49.21
64080;BME280;51042;49.696;10.808;2023-05-07T12:18:17;98497.09;;;22.95;48.16
64080;BME280;51042;49.696;10.808;2023-05-07T12:20:43;98495.28;;;23.80;46.96
64080;BME280;51042;49.696;10.808;2023-05-07T12:23:08;98495.41;;;24.47;46.85
64080;BME280;51042;49.696;10.808;2023-05-07T12:25:34;98497.09;;;24.31;45.29
64080;BME280;51042;49.696;10.808;2023-05-07T12:28:01;98501.53;;;23.91;46.11
64080;BME280;51042;49.696;10.808;2023-05-07T12:30:27;98500.72;;;23.67;46.65
64080;BME280;51042;49.696;10.808;2023-05-07T12:32:53;98499.81;;;23.88;46.73
64080;BME280;51042;49.696;10.808;2023-05-07T12:35:32;98507.38;;;24.23;44.84
64080;BME280;51042;49.696;10.808;2023-05-07T12:38:01;98498.84;;;24.34;45.21
64080;BME280;51042;49.696;10.808;2023-05-07T12:40:45;98492.91;;;24.62;43.61
64080;BME280;51042;49.696;10.808;2023-05-07T12:43:24;98501.97;;;24.31;43.34
64080;BME280;51042;49.696;10.808;2023-05-07T12:45:51;98489.22;;;24.30;44.52
64080;BME280;51042;49.696;10.808;2023-05-07T12:48:19;98493.13;;;24.46;43.62
64080;BME280;51042;49.696;10.808;2023-05-07T12:51:04;98485.91;;;23.72;44.00
64080;BME280;51042;49.696;10.808;2023-05-07T12:53:30;98487.63;;;24.34;43.54
64080;BME280;51042;49.696;10.808;2023-05-07T12:55:57;98480.84;;;24.49;41.96
64080;BME280;51042;49.696;10.808;2023-05-07T12:58:25;98479.94;;;25.85;42.37